createdAt,value
2024-05-09T00:01:51.193Z,100909.61
2024-05-09T00:04:24.257Z,100907.02
2024-05-09T00:06:58.135Z,100914.40
2024-05-09T00:09:31.223Z,100911.92
2024-05-09T00:12:04.091Z,100910.84
2024-05-09T00:14:36.833Z,100912.31
2024-05-09T00:17:09.473Z,100913.15
2024-05-09T00:19:42.388Z,100919.33
2024-05-09T00:22:15.088Z,100921.88
2024-05-09T00:24:47.842Z,100918.16
2024-05-09T00:27:20.987Z,100926.06
2024-05-09T00:29:53.738Z,100929.77
2024-05-09T00:32:26.837Z,100929.00
2024-05-09T00:34:59.728Z,100934.55
2024-05-09T00:37:33.487Z,100937.50
2024-05-09T00:40:09.586Z,100941.20
2024-05-09T00:42:41.687Z,100938.36
2024-05-09T00:45:14.469Z,100941.19
2024-05-09T00:47:48.874Z,100945.48
2024-05-09T00:50:29.619Z,100948.80
2024-05-09T00:52:56.109Z,100951.38
2024-05-09T00:55:29.263Z,100945.28
2024-05-09T00:58:02.523Z,100951.05
2024-05-09T01:00:39.504Z,100952.72
2024-05-09T01:03:12.603Z,100951.68
2024-05-09T01:05:45.408Z,100963.84
2024-05-09T01:08:18.201Z,100960.86
2024-05-09T01:10:51.422Z,100961.27
2024-05-09T01:13:24.753Z,100968.97
2024-05-09T01:15:58.277Z,100968.20
2024-05-09T01:18:31.289Z,100968.45
2024-05-09T01:21:05.905Z,100966.44
2024-05-09T01:23:37.960Z,100956.37
2024-05-09T01:26:10.276Z,100965.14
2024-05-09T01:28:43.194Z,100965.53
2024-05-09T01:31:16.196Z,100964.39
2024-05-09T01:33:49.034Z,100963.97
2024-05-09T01:36:21.789Z,100967.69
2024-05-09T01:38:54.410Z,100972.02
2024-05-09T01:41:27.271Z,100972.44
2024-05-09T01:44:00.835Z,100969.56
2024-05-09T01:46:33.841Z,100965.82
2024-05-09T01:49:08.259Z,100972.05
2024-05-09T01:51:41.049Z,100980.95
2024-05-09T01:54:13.564Z,100981.47
2024-05-09T01:56:46.460Z,100982.08
2024-05-09T01:59:19.214Z,100979.95
2024-05-09T02:01:56.836Z,100983.84
2024-05-09T02:04:26.132Z,100986.38
2024-05-09T02:06:58.795Z,100984.77
2024-05-09T02:09:31.607Z,100991.39
2024-05-09T02:12:04.474Z,100994.97
2024-05-09T02:14:37.575Z,100995.75
2024-05-09T02:17:11.613Z,101002.41
2024-05-09T02:19:44.302Z,101003.86
2024-05-09T02:22:17.337Z,101001.94
2024-05-09T02:24:50.539Z,101005.52
2024-05-09T02:27:23.335Z,101007.34
2024-05-09T02:29:56.017Z,101008.52
2024-05-09T02:32:28.719Z,101016.47
2024-05-09T02:35:01.322Z,101013.86
2024-05-09T02:37:34.193Z,101015.05
2024-05-09T02:40:11.712Z,101022.28
2024-05-09T02:42:43.447Z,101024.61
2024-05-09T02:45:16.446Z,101027.69
2024-05-09T02:47:49.338Z,101033.97
2024-05-09T02:50:29.980Z,101041.98
2024-05-09T02:52:56.722Z,101038.20
2024-05-09T02:55:29.783Z,101039.72
2024-05-09T02:58:02.351Z,101037.70
2024-05-09T03:00:39.674Z,101043.28
2024-05-09T03:03:11.275Z,101049.63
2024-05-09T03:05:45.389Z,101059.47
2024-05-09T03:08:17.503Z,101058.32
2024-05-09T03:10:50.314Z,101053.18
2024-05-09T03:13:23.183Z,101067.02
2024-05-09T03:15:56.669Z,101060.69
2024-05-09T03:18:30.536Z,101063.46
2024-05-09T03:21:03.327Z,101060.83
2024-05-09T03:23:44.214Z,101061.40
2024-05-09T03:26:19.702Z,101061.46
2024-05-09T03:28:52.540Z,101066.46
2024-05-09T03:31:25.913Z,101067.40
2024-05-09T03:33:59.692Z,101059.28
2024-05-09T03:36:32.733Z,101066.63
2024-05-09T03:39:06.189Z,101069.33
2024-05-09T03:41:38.795Z,101068.48
2024-05-09T03:44:12.603Z,101065.33
2024-05-09T03:46:45.321Z,101060.75
2024-05-09T03:49:18.178Z,101071.00
2024-05-09T03:51:50.996Z,101071.73
2024-05-09T03:54:24.851Z,101074.87
2024-05-09T03:56:57.534Z,101071.17
2024-05-09T03:59:30.583Z,101078.51
2024-05-09T04:02:03.332Z,101076.47
2024-05-09T04:04:36.277Z,101069.55
2024-05-09T04:07:09.763Z,101075.53
2024-05-09T04:09:42.587Z,101079.76
2024-05-09T04:12:15.331Z,101082.14
2024-05-09T04:14:48.256Z,101080.89
2024-05-09T04:17:20.862Z,101082.38
2024-05-09T04:19:53.546Z,101084.65
2024-05-09T04:22:26.276Z,101088.91
2024-05-09T04:24:58.862Z,101088.40
2024-05-09T04:27:32.482Z,101081.70
2024-05-09T04:30:10.043Z,101088.37
2024-05-09T04:32:40.756Z,101081.81
2024-05-09T04:35:15.222Z,101081.26
2024-05-09T04:37:47.902Z,101079.16
2024-05-09T04:40:28.241Z,101084.83
2024-05-09T04:42:54.846Z,101091.13
2024-05-09T04:45:27.495Z,101090.91
2024-05-09T04:48:01.071Z,101095.45
2024-05-09T04:50:38.172Z,101089.18
2024-05-09T04:53:15.659Z,101097.44
2024-05-09T04:55:48.373Z,101094.42
2024-05-09T04:58:21.044Z,101096.70
2024-05-09T05:00:54.170Z,101102.16
2024-05-09T05:03:27.520Z,101102.29
2024-05-09T05:06:00.611Z,101104.91
2024-05-09T05:08:35.167Z,101098.41
2024-05-09T05:11:08.745Z,101098.19
2024-05-09T05:13:41.889Z,101099.33
2024-05-09T05:16:14.897Z,101103.09
2024-05-09T05:18:47.656Z,101104.61
2024-05-09T05:21:20.501Z,101096.71
2024-05-09T05:23:53.452Z,101107.38
2024-05-09T05:26:26.070Z,101103.94
2024-05-09T05:28:58.850Z,101101.70
2024-05-09T05:31:31.552Z,101114.93
2024-05-09T05:34:04.370Z,101117.77
2024-05-09T05:36:37.038Z,101114.05
2024-05-09T05:39:10.387Z,101112.20
2024-05-09T05:41:43.118Z,101113.80
2024-05-09T05:44:16.237Z,101118.47
2024-05-09T05:46:48.799Z,101112.36
2024-05-09T05:49:21.682Z,101107.32
2024-05-09T05:51:55.200Z,101113.73
2024-05-09T05:54:29.706Z,101117.15
2024-05-09T05:57:03.017Z,101113.27
2024-05-09T05:59:36.643Z,101109.86
2024-05-09T06:02:11.064Z,101118.72
2024-05-09T06:04:43.917Z,101118.98
2024-05-09T06:07:16.483Z,101114.11
2024-05-09T06:09:50.630Z,101110.67
2024-05-09T06:12:23.648Z,101110.34
2024-05-09T06:14:56.472Z,101115.17
2024-05-09T06:17:29.381Z,101112.66
2024-05-09T06:20:02.342Z,101107.89
2024-05-09T06:22:36.493Z,101105.16
2024-05-09T06:25:09.510Z,101105.86
2024-05-09T06:27:43.165Z,101106.54
2024-05-09T06:30:25.771Z,101107.64
2024-05-09T06:32:53.246Z,101107.50
2024-05-09T06:35:26.185Z,101112.19
2024-05-09T06:37:59.743Z,101116.08
2024-05-09T06:40:37.553Z,101106.75
2024-05-09T06:43:27.579Z,101105.45
2024-05-09T06:46:00.209Z,101110.39
2024-05-09T06:48:33.426Z,101113.48
2024-05-09T06:51:07.380Z,101109.70
2024-05-09T06:53:41.303Z,101113.03
2024-05-09T06:56:14.981Z,101113.03
2024-05-09T06:58:47.667Z,101112.20
2024-05-09T07:01:20.450Z,101110.28
2024-05-09T07:03:53.060Z,101113.64
2024-05-09T07:06:29.554Z,101115.55
2024-05-09T07:09:02.759Z,101110.33
2024-05-09T07:11:36.032Z,101111.37
2024-05-09T07:14:09.924Z,101114.31
2024-05-09T07:16:42.957Z,101112.15
2024-05-09T07:19:15.754Z,101117.67
2024-05-09T07:21:48.991Z,101116.91
2024-05-09T07:24:21.913Z,101124.27
2024-05-09T07:26:56.155Z,101115.14
2024-05-09T07:29:30.362Z,101110.42
2024-05-09T07:32:03.260Z,101113.56
2024-05-09T07:34:36.265Z,101110.80
2024-05-09T07:37:10.815Z,101111.94
2024-05-09T07:39:42.858Z,101112.92
2024-05-09T07:42:15.549Z,101106.30
2024-05-09T07:44:48.352Z,101099.70
2024-05-09T07:48:32.079Z,101105.73
2024-05-09T07:53:32.602Z,101106.47
2024-05-09T07:55:04.490Z,101099.61
2024-05-09T07:57:37.618Z,101095.94
2024-05-09T08:00:14.375Z,101095.75
2024-05-09T08:02:46.433Z,101097.88
2024-05-09T08:05:19.561Z,101099.26
2024-05-09T08:07:52.478Z,101102.61
2024-05-09T08:10:29.093Z,101092.64
2024-05-09T08:13:02.525Z,101100.48
2024-05-09T08:15:37.293Z,101091.93
2024-05-09T08:18:10.895Z,101096.54
2024-05-09T08:20:44.258Z,101097.97
2024-05-09T08:23:18.024Z,101103.22
2024-05-09T08:25:51.065Z,101098.09
2024-05-09T08:28:24.038Z,101098.09
2024-05-09T08:30:57.467Z,101090.64
2024-05-09T08:33:31.065Z,101087.83
2024-05-09T08:36:04.074Z,101082.41
2024-05-09T08:38:38.254Z,101082.29
2024-05-09T08:41:12.674Z,101078.20
2024-05-09T08:43:47.060Z,101074.11
2024-05-09T08:46:20.361Z,101069.67
2024-05-09T08:48:53.519Z,101078.29
2024-05-09T08:51:26.573Z,101071.73
2024-05-09T08:53:59.262Z,101068.66
2024-05-09T08:56:32.471Z,101075.87
2024-05-09T08:59:05.232Z,101067.95
2024-05-09T09:01:40.110Z,101061.06
2024-05-09T09:04:13.370Z,101056.94
2024-05-09T09:06:46.717Z,101064.67
2024-05-09T09:09:20.525Z,101069.30
2024-05-09T09:11:54.242Z,101056.05
2024-05-09T09:14:26.946Z,101061.92
2024-05-09T09:17:00.862Z,101059.33
2024-05-09T09:19:34.045Z,101064.66
2024-05-09T09:22:07.481Z,101063.62
2024-05-09T09:24:41.700Z,101057.56
2024-05-09T09:27:18.564Z,101055.96
2024-05-09T09:29:51.343Z,101056.12
2024-05-09T09:32:26.982Z,101054.74
2024-05-09T09:34:59.753Z,101051.67
2024-05-09T09:37:32.789Z,101053.04
2024-05-09T09:40:07.090Z,101050.66
2024-05-09T09:42:43.284Z,101058.77
2024-05-09T09:45:17.140Z,101055.28
2024-05-09T09:47:49.916Z,101055.41
2024-05-09T09:50:27.992Z,101049.55
2024-05-09T09:52:57.248Z,101049.47
2024-05-09T09:55:29.988Z,101053.99
2024-05-09T09:58:03.559Z,101053.50
2024-05-09T10:00:38.137Z,101051.10
2024-05-09T10:03:10.897Z,101048.72
2024-05-09T10:05:47.077Z,101051.50
2024-05-09T10:08:19.440Z,101049.92
2024-05-09T10:10:52.407Z,101054.39
2024-05-09T10:13:36.212Z,101047.19
2024-05-09T10:16:12.734Z,101046.52
2024-05-09T10:18:45.800Z,101037.53
2024-05-09T10:21:20.685Z,101043.00
2024-05-09T10:24:01.114Z,101033.34
2024-05-09T10:26:39.010Z,101031.92
2024-05-09T10:29:17.960Z,101031.22
2024-05-09T10:31:50.850Z,101024.27
2024-05-09T10:34:25.662Z,101022.86
2024-05-09T10:36:58.958Z,101021.13
2024-05-09T10:39:37.430Z,101013.23
2024-05-09T10:42:12.093Z,101011.14
2024-05-09T10:44:44.087Z,101008.25
2024-05-09T10:47:17.174Z,101006.79
2024-05-09T10:49:50.330Z,101014.13
2024-05-09T10:52:26.357Z,101007.59
2024-05-09T10:55:00.965Z,101007.95
2024-05-09T10:57:42.051Z,101010.02
2024-05-09T11:00:23.350Z,101006.90
2024-05-09T11:02:50.603Z,101003.48
2024-05-09T11:05:23.598Z,100998.22
2024-05-09T11:07:56.958Z,101001.84
2024-05-09T11:10:33.832Z,101005.03
2024-05-09T11:13:05.508Z,100995.02
2024-05-09T11:15:43.337Z,100999.16
2024-05-09T11:18:25.614Z,100991.27
2024-05-09T11:20:58.990Z,100989.95
2024-05-09T11:23:31.948Z,100992.91
2024-05-09T11:26:04.856Z,100990.73
2024-05-09T11:28:38.046Z,100988.00
2024-05-09T11:31:11.246Z,100980.73
2024-05-09T11:33:49.345Z,100982.57
2024-05-09T11:36:22.031Z,100975.41
2024-05-09T11:38:55.924Z,100976.44
2024-05-09T11:41:30.191Z,100973.55
2024-05-09T11:44:03.574Z,100965.44
2024-05-09T11:46:36.356Z,100972.84
2024-05-09T11:49:10.427Z,100966.52
2024-05-09T11:51:43.549Z,100964.86
2024-05-09T11:54:17.990Z,100970.55
2024-05-09T11:56:51.687Z,100964.77
2024-05-09T11:59:25.010Z,100965.67
2024-05-09T12:01:57.741Z,100959.16
2024-05-09T12:04:30.913Z,100956.42
2024-05-09T12:07:09.710Z,100956.41
2024-05-09T12:09:43.071Z,100957.95
2024-05-09T12:12:16.216Z,100951.27
2024-05-09T12:14:49.469Z,100955.59
2024-05-09T12:17:22.323Z,100947.17
2024-05-09T12:19:55.445Z,100949.95
2024-05-09T12:22:28.526Z,100946.70
2024-05-09T12:25:03.180Z,100943.25
2024-05-09T12:27:37.482Z,100939.31
2024-05-09T12:30:11.578Z,100935.86
2024-05-09T12:32:46.352Z,100926.89
2024-05-09T12:35:20.289Z,100934.12
2024-05-09T12:37:53.575Z,100940.69
2024-05-09T12:40:34.819Z,100934.14
2024-05-09T12:43:06.980Z,100935.19
2024-05-09T12:45:40.654Z,100938.26
2024-05-09T12:48:13.712Z,100934.50
2024-05-09T12:50:46.739Z,100924.35
2024-05-09T12:53:21.058Z,100928.09
2024-05-09T12:55:59.681Z,100922.44
2024-05-09T12:58:28.364Z,100920.69
2024-05-09T13:01:00.978Z,100909.66
2024-05-09T13:03:34.048Z,100906.05
2024-05-09T13:06:07.150Z,100904.00
2024-05-09T13:08:40.715Z,100901.80
2024-05-09T13:11:14.343Z,100899.38
2024-05-09T13:13:47.183Z,100898.34
2024-05-09T13:16:20.571Z,100896.97
2024-05-09T13:18:53.488Z,100894.14
2024-05-09T13:21:26.430Z,100890.52
2024-05-09T13:24:00.417Z,100887.94
2024-05-09T13:26:33.668Z,100891.06
2024-05-09T13:29:06.363Z,100887.61
2024-05-09T13:31:40.695Z,100884.32
2024-05-09T13:34:13.870Z,100885.84
2024-05-09T13:36:49.023Z,100887.53
2024-05-09T13:39:21.878Z,100893.84
2024-05-09T13:41:54.615Z,100891.25
2024-05-09T13:44:28.591Z,100889.51
2024-05-09T13:47:01.519Z,100885.05
2024-05-09T13:49:35.012Z,100880.20
2024-05-09T13:52:08.206Z,100883.91
2024-05-09T13:54:40.976Z,100878.52
2024-05-09T13:57:13.907Z,100876.78
2024-05-09T13:59:47.118Z,100875.86
2024-05-09T14:02:20.009Z,100869.81
2024-05-09T14:04:52.899Z,100872.00
2024-05-09T14:07:26.171Z,100867.53
2024-05-09T14:09:58.880Z,100872.67
2024-05-09T14:12:31.991Z,100861.70
2024-05-09T14:15:04.673Z,100855.12
2024-05-09T14:17:38.589Z,100859.34
2024-05-09T14:20:14.208Z,100858.77
2024-05-09T14:22:47.007Z,100856.56
2024-05-09T14:25:23.144Z,100859.22
2024-05-09T14:28:08.792Z,100850.26
2024-05-09T14:30:42.198Z,100853.69
2024-05-09T14:33:17.793Z,100847.66
2024-05-09T14:35:50.770Z,100848.28
2024-05-09T14:38:28.173Z,100856.58
2024-05-09T14:41:05.584Z,100851.47
2024-05-09T14:43:52.435Z,100858.52
2024-05-09T14:46:33.296Z,100854.66
2024-05-09T14:49:13.078Z,100857.28
2024-05-09T14:51:50.196Z,100853.95
2024-05-09T14:54:22.719Z,100846.27
2024-05-09T14:56:56.901Z,100849.69
2024-05-09T14:59:30.343Z,100847.33
2024-05-09T15:02:04.058Z,100850.75
2024-05-09T15:04:37.384Z,100844.44
2024-05-09T15:07:11.519Z,100843.23
2024-05-09T15:09:44.674Z,100839.02
2024-05-09T15:12:17.425Z,100831.80
2024-05-09T15:14:50.585Z,100833.05
2024-05-09T15:17:23.653Z,100836.09
2024-05-09T15:19:56.944Z,100826.32
2024-05-09T15:22:29.892Z,100826.78
2024-05-09T15:25:04.138Z,100827.08
2024-05-09T15:27:37.417Z,100827.34
2024-05-09T15:30:13.207Z,100823.88
2024-05-09T15:32:45.761Z,100823.30
2024-05-09T15:35:19.153Z,100816.53
2024-05-09T15:37:51.819Z,100821.27
2024-05-09T15:40:35.436Z,100818.12
2024-05-09T15:43:04.062Z,100821.10
2024-05-09T15:45:36.871Z,100824.59
2024-05-09T15:48:10.826Z,100821.31
2024-05-09T15:50:45.808Z,100819.17
2024-05-09T15:53:19.004Z,100813.95
2024-05-09T15:55:52.939Z,100813.03
2024-05-09T15:58:25.547Z,100811.09
2024-05-09T16:00:58.461Z,100807.67
2024-05-09T16:03:31.473Z,100816.01
2024-05-09T16:06:05.955Z,100810.11
2024-05-09T16:08:38.690Z,100803.73
2024-05-09T16:11:13.000Z,100802.60
2024-05-09T16:13:46.048Z,100808.01
2024-05-09T16:16:20.011Z,100795.13
2024-05-09T16:18:53.974Z,100803.42
2024-05-09T16:21:26.803Z,100795.17
2024-05-09T16:24:00.791Z,100791.86
2024-05-09T16:26:34.483Z,100797.12
2024-05-09T16:29:07.199Z,100800.14
2024-05-09T16:31:39.765Z,100800.28
2024-05-09T16:34:12.698Z,100800.42
2024-05-09T16:36:45.893Z,100795.11
2024-05-09T16:39:22.944Z,100790.47
2024-05-09T16:41:56.759Z,100793.77
2024-05-09T16:44:31.014Z,100790.98
2024-05-09T16:47:06.131Z,100791.03
2024-05-09T16:49:39.134Z,100790.48
2024-05-09T16:52:12.077Z,100790.77
2024-05-09T16:54:44.666Z,100785.59
2024-05-09T16:57:17.371Z,100787.91
2024-05-09T16:59:49.941Z,100782.98
2024-05-09T17:02:23.796Z,100785.27
2024-05-09T17:04:57.514Z,100783.49
2024-05-09T17:07:30.429Z,100783.39
2024-05-09T17:10:03.966Z,100785.56
2024-05-09T17:12:38.132Z,100782.63
2024-05-09T17:15:11.420Z,100788.36
2024-05-09T17:17:44.141Z,100783.81
2024-05-09T17:20:28.390Z,100786.83
2024-05-09T17:22:51.328Z,100786.02
2024-05-09T17:25:24.801Z,100780.78
2024-05-09T17:27:59.429Z,100781.20
2024-05-09T17:30:36.790Z,100784.73
2024-05-09T17:33:10.227Z,100788.88
2024-05-09T17:35:44.895Z,100790.94
2024-05-09T17:38:17.789Z,100792.84
2024-05-09T17:40:52.049Z,100789.31
2024-05-09T17:43:24.468Z,100789.02
2024-05-09T17:45:57.732Z,100791.77
2024-05-09T17:48:30.512Z,100789.76
2024-05-09T17:51:03.394Z,100790.38
2024-05-09T17:53:36.096Z,100790.66
2024-05-09T17:56:30.772Z,100796.89
2024-05-09T17:59:03.270Z,100794.70
2024-05-09T18:01:36.410Z,100804.86
2024-05-09T18:04:09.371Z,100807.85
2024-05-09T18:06:42.307Z,100807.38
2024-05-09T18:09:14.883Z,100807.27
2024-05-09T18:11:47.950Z,100806.82
2024-05-09T18:14:20.526Z,100811.30
2024-05-09T18:16:53.467Z,100820.88
2024-05-09T18:19:26.353Z,100814.11
2024-05-09T18:21:59.561Z,100819.08
2024-05-09T18:24:32.268Z,100821.58
2024-05-09T18:27:06.296Z,100821.97
2024-05-09T18:29:38.854Z,100818.51
2024-05-09T18:32:11.759Z,100819.29
2024-05-09T18:34:44.581Z,100814.95
2024-05-09T18:37:18.405Z,100821.53
2024-05-09T18:39:52.094Z,100821.08
2024-05-09T18:42:24.872Z,100824.19
2024-05-09T18:44:57.473Z,100823.70
2024-05-09T18:47:30.971Z,100824.84
2024-05-09T18:50:08.876Z,100828.69
2024-05-09T18:52:39.778Z,100831.67
2024-05-09T18:55:14.694Z,100832.94
2024-05-09T18:57:48.611Z,100834.16
2024-05-09T19:00:31.555Z,100836.30
2024-05-09T19:02:58.177Z,100840.63
2024-05-09T19:05:32.114Z,100839.17
2024-05-09T19:08:07.426Z,100844.34
2024-05-09T19:10:40.737Z,100846.34
2024-05-09T19:13:15.814Z,100840.29
2024-05-09T19:15:50.058Z,100841.91
2024-05-09T19:18:23.205Z,100842.16
2024-05-09T19:20:56.324Z,100846.75
2024-05-09T19:23:29.249Z,100842.41
2024-05-09T19:26:03.330Z,100844.18
2024-05-09T19:28:36.246Z,100845.79
2024-05-09T19:31:12.142Z,100845.78
2024-05-09T19:33:44.985Z,100845.80
2024-05-09T19:36:19.207Z,100848.05
2024-05-09T19:38:51.909Z,100853.61
2024-05-09T19:41:24.578Z,100852.62
2024-05-09T19:43:57.948Z,100855.07
2024-05-09T19:46:30.625Z,100854.31
2024-05-09T19:49:05.781Z,100851.97
2024-05-09T19:51:39.770Z,100846.78
2024-05-09T19:54:12.566Z,100852.86
2024-05-09T19:56:45.386Z,100849.63
2024-05-09T19:59:18.195Z,100854.09
2024-05-09T20:01:51.109Z,100850.98
2024-05-09T20:04:24.313Z,100847.91
2024-05-09T20:06:57.251Z,100860.13
2024-05-09T20:09:29.903Z,100857.30
2024-05-09T20:12:02.957Z,100853.47
2024-05-09T20:14:36.366Z,100860.87
2024-05-09T20:17:09.254Z,100858.91
2024-05-09T20:19:44.579Z,100854.21
2024-05-09T20:22:17.333Z,100857.05
2024-05-09T20:24:50.108Z,100862.72
2024-05-09T20:27:23.292Z,100859.64
2024-05-09T20:29:56.143Z,100863.95
2024-05-09T20:32:30.056Z,100860.39
2024-05-09T20:35:02.761Z,100861.63
2024-05-09T20:37:36.592Z,100866.67
2024-05-09T20:40:18.161Z,100863.11
2024-05-09T20:42:46.826Z,100864.47
2024-05-09T20:45:19.533Z,100867.66
2024-05-09T20:47:52.478Z,100868.90
2024-05-09T20:50:36.303Z,100868.17
2024-05-09T20:53:00.404Z,100869.88
2024-05-09T20:55:34.127Z,100868.05
2024-05-09T20:58:08.063Z,100856.91
2024-05-09T21:00:44.018Z,100874.69
2024-05-09T21:03:17.118Z,100877.52
2024-05-09T21:05:50.448Z,100869.66
2024-05-09T21:08:23.827Z,100865.19
2024-05-09T21:10:56.519Z,100876.05
2024-05-09T21:13:30.660Z,100882.00
2024-05-09T21:16:04.441Z,100875.58
2024-05-09T21:18:37.993Z,100878.02
2024-05-09T21:21:10.787Z,100874.70
2024-05-09T21:23:43.309Z,100875.83
2024-05-09T21:26:17.335Z,100878.27
2024-05-09T21:28:50.670Z,100881.98
2024-05-09T21:31:23.476Z,100881.22
2024-05-09T21:33:56.359Z,100885.69
2024-05-09T21:36:29.046Z,100880.63
2024-05-09T21:39:01.979Z,100886.05
2024-05-09T21:41:34.838Z,100890.13
2024-05-09T21:44:07.692Z,100891.48
2024-05-09T21:46:40.421Z,100891.23
2024-05-09T21:49:14.286Z,100899.11
2024-05-09T21:51:47.515Z,100892.95
2024-05-09T21:54:20.199Z,100895.20
2024-05-09T21:56:52.772Z,100893.56
2024-05-09T21:59:25.957Z,100898.03
2024-05-09T22:01:58.990Z,100895.16
2024-05-09T22:04:32.625Z,100889.36
2024-05-09T22:07:06.577Z,100894.03
2024-05-09T22:09:40.946Z,100894.28
2024-05-09T22:12:35.350Z,100894.91
2024-05-09T22:15:08.645Z,100896.75
2024-05-09T22:17:43.106Z,100905.13
2024-05-09T22:20:22.255Z,100905.36
2024-05-09T22:22:53.419Z,100903.77
2024-05-09T22:25:28.036Z,100904.24
2024-05-09T22:28:02.082Z,100901.41
2024-05-09T22:30:38.605Z,100895.50
2024-05-09T22:33:12.845Z,100893.15
2024-05-09T22:35:45.769Z,100904.13
2024-05-09T22:38:18.659Z,100896.50
2024-05-09T22:40:52.216Z,100897.22
2024-05-09T22:43:25.874Z,100891.06
2024-05-09T22:45:58.853Z,100903.64
2024-05-09T22:48:31.537Z,100895.49
2024-05-09T22:51:04.583Z,100895.84
2024-05-09T22:53:37.200Z,100891.02
2024-05-09T22:56:11.757Z,100892.61
2024-05-09T22:58:45.530Z,100892.25
2024-05-09T23:01:18.242Z,100895.08
2024-05-09T23:03:51.438Z,100897.31
2024-05-09T23:06:24.106Z,100894.59
2024-05-09T23:08:56.873Z,100895.20
2024-05-09T23:11:29.939Z,100891.48
2024-05-09T23:14:03.010Z,100895.20
2024-05-09T23:16:35.791Z,100890.87
2024-05-09T23:19:09.895Z,100886.41
2024-05-09T23:21:42.589Z,100885.45
2024-05-09T23:24:15.434Z,100899.27
2024-05-09T23:26:48.148Z,100896.67
2024-05-09T23:29:21.480Z,100893.36
2024-05-09T23:31:55.283Z,100888.41
2024-05-09T23:34:28.163Z,100885.94
2024-05-09T23:37:00.895Z,100891.71
2024-05-09T23:39:33.977Z,100886.16
2024-05-09T23:42:08.468Z,100888.63
2024-05-09T23:44:41.497Z,100887.02
2024-05-09T23:47:14.178Z,100885.50
2024-05-09T23:49:47.002Z,100882.17
2024-05-09T23:52:19.819Z,100888.67
2024-05-09T23:54:53.787Z,100885.34
2024-05-09T23:57:26.616Z,100887.30
